createdAt,value
2023-03-02T00:01:57.327Z,48.70
2023-03-02T00:04:42.691Z,48.30
2023-03-02T00:07:14.628Z,46.50
2023-03-02T00:09:43.578Z,49.10
2023-03-02T00:12:11.923Z,49.90
2023-03-02T00:14:38.769Z,53.00
2023-03-02T00:17:08.308Z,55.50
2023-03-02T00:19:36.695Z,56.60
2023-03-02T00:22:04.688Z,55.10
2023-03-02T00:24:31.885Z,53.30
2023-03-02T00:26:58.936Z,52.40
2023-03-02T00:29:25.983Z,54.40
2023-03-02T00:31:53.080Z,55.50
2023-03-02T00:34:30.260Z,59.20
2023-03-02T00:36:57.328Z,62.70
2023-03-02T00:39:24.924Z,64.90
2023-03-02T00:41:52.042Z,63.10
2023-03-02T00:44:19.408Z,61.90
2023-03-02T00:46:46.515Z,59.90
2023-03-02T00:49:13.890Z,58.00
2023-03-02T00:51:41.165Z,58.40
2023-03-02T00:54:08.242Z,58.70
2023-03-02T00:56:35.328Z,57.80
2023-03-02T00:59:07.321Z,54.60
2023-03-02T01:01:34.446Z,56.60
2023-03-02T01:04:01.486Z,62.40
2023-03-02T01:06:28.795Z,58.50
2023-03-02T01:08:55.828Z,59.40
2023-03-02T01:11:23.018Z,58.00
2023-03-02T01:13:51.028Z,60.40
2023-03-02T01:16:18.787Z,60.40
2023-03-02T01:18:46.135Z,57.00
2023-03-02T01:21:15.858Z,57.00
2023-03-02T01:23:43.102Z,63.10
2023-03-02T01:26:10.528Z,61.90
2023-03-02T01:28:37.818Z,58.90
2023-03-02T01:31:05.624Z,61.20
2023-03-02T01:33:33.492Z,58.50
2023-03-02T01:36:00.992Z,57.50
2023-03-02T01:38:28.757Z,59.70
2023-03-02T01:40:55.736Z,61.90
2023-03-02T01:43:22.941Z,61.40
2023-03-02T01:46:05.127Z,62.90
2023-03-02T01:48:45.418Z,62.40
2023-03-02T01:51:16.306Z,68.20
2023-03-02T01:53:47.508Z,71.00
2023-03-02T01:56:21.652Z,70.40
2023-03-02T01:58:53.409Z,68.30
2023-03-02T02:01:22.023Z,66.80
2023-03-02T02:03:50.981Z,71.60
2023-03-02T02:06:43.262Z,66.30
2023-03-02T02:09:14.781Z,64.60
2023-03-02T02:11:43.976Z,59.50
2023-03-02T02:14:10.986Z,60.60
2023-03-02T02:16:39.530Z,63.00
2023-03-02T02:19:31.583Z,63.20
2023-03-02T02:21:58.838Z,61.70
2023-03-02T02:24:34.131Z,60.30
2023-03-02T02:27:01.969Z,62.40
2023-03-02T02:29:35.570Z,60.20
2023-03-02T02:32:11.698Z,61.00
2023-03-02T02:34:40.945Z,59.70
2023-03-02T02:37:15.013Z,61.80
2023-03-02T02:39:46.706Z,67.40
2023-03-02T02:42:36.610Z,64.40
2023-03-02T02:45:08.072Z,60.70
2023-03-02T02:47:35.436Z,60.40
2023-03-02T02:50:02.848Z,61.30
2023-03-02T02:52:30.289Z,61.00
2023-03-02T02:54:59.109Z,61.10
2023-03-02T02:57:29.970Z,59.80
2023-03-02T03:00:01.311Z,61.00
2023-03-02T03:02:33.270Z,69.30
2023-03-02T03:05:04.312Z,68.60
2023-03-02T03:10:18.853Z,62.90
2023-03-02T03:12:47.740Z,67.80
2023-03-02T03:15:16.223Z,67.00
2023-03-02T03:17:53.844Z,64.70
2023-03-02T03:20:22.615Z,64.60
2023-03-02T03:22:49.879Z,60.00
2023-03-02T03:25:17.243Z,56.70
2023-03-02T03:27:44.490Z,54.90
2023-03-02T03:30:13.973Z,54.00
2023-03-02T03:32:41.838Z,55.60
2023-03-02T03:35:11.888Z,55.70
2023-03-02T03:37:41.073Z,59.50
2023-03-02T03:40:10.294Z,58.80
2023-03-02T03:42:40.451Z,59.60
2023-03-02T03:45:09.134Z,59.50
2023-03-02T03:47:36.799Z,55.40
2023-03-02T03:50:04.515Z,57.80
2023-03-02T03:52:32.075Z,55.20
2023-03-02T03:55:00.676Z,54.30
2023-03-02T03:57:29.278Z,56.90
2023-03-02T03:59:56.248Z,56.00
2023-03-02T04:02:23.589Z,54.60
2023-03-02T04:04:50.916Z,56.40
2023-03-02T04:07:18.368Z,51.30
2023-03-02T04:09:45.429Z,53.80
2023-03-02T04:12:12.745Z,56.90
2023-03-02T04:14:39.875Z,63.50
2023-03-02T04:17:07.491Z,64.50
2023-03-02T04:19:35.898Z,65.00
2023-03-02T04:22:04.758Z,65.10
2023-03-02T04:24:32.419Z,62.70
2023-03-02T04:26:59.879Z,71.40
2023-03-02T04:29:32.921Z,81.20
2023-03-02T04:32:06.644Z,77.50
2023-03-02T04:34:33.860Z,82.20
2023-03-02T04:37:01.467Z,68.20
2023-03-02T04:39:28.418Z,62.40
2023-03-02T04:41:55.738Z,61.90
2023-03-02T04:44:23.056Z,60.00
2023-03-02T04:46:50.219Z,62.60
2023-03-02T04:49:19.480Z,62.60
2023-03-02T04:51:48.830Z,63.00
2023-03-02T04:54:25.457Z,61.30
2023-03-02T04:56:53.721Z,59.10
2023-03-02T04:59:30.945Z,61.70
2023-03-02T05:02:05.494Z,67.80
2023-03-02T05:04:33.245Z,69.30
2023-03-02T05:07:00.731Z,70.50
2023-03-02T05:09:29.721Z,76.30
2023-03-02T05:11:59.369Z,75.60
2023-03-02T05:14:27.396Z,76.80
2023-03-02T05:16:54.648Z,74.10
2023-03-02T05:19:21.802Z,72.00
2023-03-02T05:21:49.169Z,73.40
2023-03-02T05:24:16.185Z,87.90
2023-03-02T05:26:43.133Z,84.90
2023-03-02T05:29:09.985Z,93.70
2023-03-02T05:31:43.359Z,85.60
2023-03-02T05:34:15.542Z,83.00
2023-03-02T05:36:43.822Z,75.10
2023-03-02T05:39:11.148Z,75.20
2023-03-02T05:41:38.730Z,77.60
2023-03-02T05:44:09.648Z,73.40
2023-03-02T05:46:37.204Z,72.50
2023-03-02T05:49:04.566Z,59.00
2023-03-02T05:51:31.530Z,51.80
2023-03-02T05:53:58.556Z,55.30
2023-03-02T05:56:25.732Z,64.30
2023-03-02T05:58:52.526Z,64.50
2023-03-02T06:01:19.884Z,68.40
2023-03-02T06:03:47.369Z,78.20
2023-03-02T06:06:14.540Z,86.60
2023-03-02T06:08:42.593Z,88.60
2023-03-02T06:11:10.213Z,87.60
2023-03-02T06:13:37.775Z,83.80
2023-03-02T06:16:05.457Z,77.10
2023-03-02T06:18:32.900Z,78.40
2023-03-02T06:21:00.541Z,75.40
2023-03-02T06:23:27.806Z,69.30
2023-03-02T06:25:55.158Z,67.60
2023-03-02T06:28:22.298Z,71.80
2023-03-02T06:30:50.056Z,77.10
2023-03-02T06:33:18.368Z,79.70
2023-03-02T06:35:46.506Z,81.10
2023-03-02T06:38:13.853Z,74.40
2023-03-02T06:40:41.161Z,77.60
2023-03-02T06:43:08.148Z,75.40
2023-03-02T06:45:35.642Z,75.10
2023-03-02T06:48:02.785Z,78.20
2023-03-02T06:50:29.726Z,66.30
2023-03-02T06:52:57.321Z,60.30
2023-03-02T06:55:24.841Z,62.00
2023-03-02T06:57:52.444Z,64.30
2023-03-02T07:00:26.423Z,64.30
2023-03-02T07:02:54.050Z,54.30
2023-03-02T07:05:22.930Z,64.50
2023-03-02T07:07:50.279Z,72.10
2023-03-02T07:10:17.566Z,65.10
2023-03-02T07:12:45.238Z,63.30
2023-03-02T07:15:14.572Z,47.60
2023-03-02T07:17:43.805Z,65.60
2023-03-02T07:20:13.011Z,53.40
2023-03-02T07:22:40.804Z,44.00
2023-03-02T07:25:20.896Z,48.00
2023-03-02T07:27:50.401Z,51.70
2023-03-02T07:30:31.105Z,44.90
2023-03-02T07:32:59.858Z,45.50
2023-03-02T07:35:35.319Z,53.10
2023-03-02T07:38:03.494Z,53.30
2023-03-02T07:40:37.421Z,41.30
2023-03-02T07:43:07.063Z,46.80
2023-03-02T07:45:34.534Z,33.70
2023-03-02T07:48:03.089Z,34.70
2023-03-02T07:50:32.192Z,38.00
2023-03-02T07:53:00.752Z,33.40
2023-03-02T07:55:28.685Z,38.30
2023-03-02T07:57:55.687Z,37.40
2023-03-02T08:00:23.007Z,41.10
2023-03-02T08:02:50.113Z,38.80
2023-03-02T08:05:17.434Z,31.30
2023-03-02T08:07:47.330Z,28.90
2023-03-02T08:10:14.393Z,32.10
2023-03-02T08:12:43.247Z,28.70
2023-03-02T08:15:11.417Z,28.10
2023-03-02T08:17:38.705Z,32.90
2023-03-02T08:20:07.004Z,26.60
2023-03-02T08:22:34.366Z,29.90
2023-03-02T08:25:01.588Z,28.60
2023-03-02T08:27:28.379Z,30.30
2023-03-02T08:29:55.811Z,26.40
2023-03-02T08:32:22.787Z,37.50
2023-03-02T08:34:52.211Z,35.40
2023-03-02T08:37:20.249Z,34.10
2023-03-02T08:39:47.486Z,34.00
2023-03-02T08:42:14.846Z,29.40
2023-03-02T08:44:41.814Z,26.00
2023-03-02T08:47:09.003Z,22.10
2023-03-02T08:49:38.217Z,23.60
2023-03-02T08:52:05.733Z,24.60
2023-03-02T08:54:34.945Z,23.40
2023-03-02T08:57:03.008Z,23.10
2023-03-02T08:59:30.285Z,25.20
2023-03-02T09:01:59.722Z,19.80
2023-03-02T09:04:26.762Z,21.00
2023-03-02T09:06:53.803Z,21.70
2023-03-02T09:09:20.840Z,23.70
2023-03-02T09:11:48.239Z,23.70
2023-03-02T09:14:15.644Z,19.30
2023-03-02T09:16:42.760Z,18.50
2023-03-02T09:19:12.532Z,20.50
2023-03-02T09:21:40.125Z,21.30
2023-03-02T09:24:07.329Z,16.10
2023-03-02T09:26:35.484Z,18.00
2023-03-02T09:29:02.469Z,18.00
2023-03-02T09:31:30.502Z,18.90
2023-03-02T09:33:57.791Z,16.80
2023-03-02T09:36:26.944Z,16.10
2023-03-02T09:38:54.200Z,16.10
2023-03-02T09:41:21.093Z,17.30
2023-03-02T09:43:50.983Z,15.90
2023-03-02T09:46:34.416Z,14.60
2023-03-02T09:49:39.322Z,15.10
2023-03-02T09:52:35.084Z,15.20
2023-03-02T09:55:24.242Z,14.30
2023-03-02T09:57:52.212Z,14.50
2023-03-02T10:00:28.537Z,17.20
2023-03-02T10:03:16.187Z,17.30
2023-03-02T10:05:48.785Z,14.20
2023-03-02T10:08:21.160Z,12.50
2023-03-02T10:10:59.731Z,11.70
2023-03-02T10:14:08.697Z,10.90
2023-03-02T10:16:52.844Z,11.80
2023-03-02T10:19:32.756Z,13.80
2023-03-02T10:22:08.920Z,12.40
2023-03-02T10:24:47.332Z,12.10
2023-03-02T10:27:27.120Z,11.00
2023-03-02T10:30:06.758Z,16.50
2023-03-02T10:32:42.140Z,15.40
2023-03-02T10:35:21.256Z,10.40
2023-03-02T10:37:49.428Z,10.00
2023-03-02T10:40:51.113Z,12.20
2023-03-02T10:43:31.152Z,10.70
2023-03-02T10:46:03.668Z,9.80
2023-03-02T10:48:32.783Z,14.40
2023-03-02T10:51:01.514Z,8.60
2023-03-02T10:53:31.132Z,8.00
2023-03-02T10:56:00.676Z,8.20
2023-03-02T10:58:33.009Z,8.30
2023-03-02T11:01:06.077Z,9.70
2023-03-02T11:03:34.622Z,8.70
2023-03-02T11:06:18.119Z,13.40
2023-03-02T11:08:45.031Z,8.50
2023-03-02T11:11:23.205Z,9.30
2023-03-02T11:13:51.221Z,8.30
2023-03-02T11:16:18.527Z,10.80
2023-03-02T11:19:17.720Z,9.90
2023-03-02T11:21:54.044Z,8.40
2023-03-02T11:24:37.322Z,8.60
2023-03-02T11:27:23.037Z,7.40
2023-03-02T11:30:17.320Z,7.80
2023-03-02T11:33:02.065Z,7.10
2023-03-02T11:35:37.400Z,7.70
2023-03-02T11:38:19.732Z,10.00
2023-03-02T11:40:55.662Z,9.90
2023-03-02T11:43:23.152Z,8.90
2023-03-02T11:46:10.863Z,8.80
2023-03-02T11:48:45.331Z,9.00
2023-03-02T11:51:18.284Z,10.30
2023-03-02T11:53:58.248Z,11.00
2023-03-02T11:56:27.176Z,7.30
2023-03-02T11:58:58.281Z,9.30
2023-03-02T12:01:29.405Z,8.70
2023-03-02T12:04:08.397Z,8.00
2023-03-02T12:06:39.082Z,9.10
2023-03-02T12:09:37.444Z,7.20
2023-03-02T12:12:32.109Z,10.60
2023-03-02T12:14:59.144Z,9.00
2023-03-02T12:17:25.983Z,7.40
2023-03-02T12:20:27.054Z,7.60
2023-03-02T12:22:55.243Z,7.80
2023-03-02T12:25:22.150Z,7.30
2023-03-02T12:27:52.052Z,8.10
2023-03-02T12:30:24.023Z,8.70
2023-03-02T12:33:18.818Z,8.50
2023-03-02T12:35:47.749Z,9.50
2023-03-02T12:38:35.558Z,8.10
2023-03-02T12:41:35.829Z,7.90
2023-03-02T12:44:34.948Z,7.70
2023-03-02T12:47:03.784Z,8.70
2023-03-02T12:50:20.958Z,7.40
2023-03-02T12:52:58.855Z,7.00
2023-03-02T12:55:26.205Z,7.00
2023-03-02T12:57:58.687Z,7.80
2023-03-02T13:00:30.448Z,16.90
2023-03-02T13:02:58.890Z,12.60
2023-03-02T13:05:32.073Z,11.90
2023-03-02T13:08:02.003Z,9.40
2023-03-02T13:10:37.502Z,10.20
2023-03-02T13:13:19.519Z,10.10
2023-03-02T13:15:58.204Z,9.80
2023-03-02T13:18:28.466Z,9.30
2023-03-02T13:20:56.231Z,10.60
2023-03-02T13:23:23.733Z,9.30
2023-03-02T13:25:57.516Z,9.80
2023-03-02T13:28:40.450Z,9.50
2023-03-02T13:31:20.741Z,11.20
2023-03-02T13:33:50.595Z,9.20
2023-03-02T13:36:31.283Z,9.00
2023-03-02T13:39:00.881Z,8.40
2023-03-02T13:41:36.932Z,9.30
2023-03-02T13:44:31.639Z,9.10
2023-03-02T13:46:59.832Z,8.90
2023-03-02T13:49:35.920Z,8.70
2023-03-02T13:52:22.687Z,14.20
2023-03-02T13:54:50.410Z,8.40
2023-03-02T13:57:25.478Z,8.60
2023-03-02T13:59:52.795Z,7.90
2023-03-02T14:02:29.021Z,11.30
2023-03-02T14:04:57.012Z,10.20
2023-03-02T14:07:24.278Z,9.20
2023-03-02T14:09:51.483Z,9.00
2023-03-02T14:12:25.644Z,7.60
2023-03-02T14:14:56.193Z,15.40
2023-03-02T14:17:25.562Z,10.30
2023-03-02T14:19:53.562Z,10.10
2023-03-02T14:22:22.137Z,11.70
2023-03-02T14:24:49.320Z,9.70
2023-03-02T14:27:18.297Z,9.10
2023-03-02T14:29:46.953Z,10.10
2023-03-02T14:32:15.706Z,13.20
2023-03-02T14:34:45.473Z,18.30
2023-03-02T14:37:22.889Z,9.70
2023-03-02T14:39:55.520Z,9.40
2023-03-02T14:42:24.607Z,9.60
2023-03-02T14:44:53.342Z,10.30
2023-03-02T14:47:22.557Z,10.10
2023-03-02T14:49:51.347Z,9.10
2023-03-02T14:52:28.273Z,9.90
2023-03-02T14:55:01.479Z,9.10
2023-03-02T14:57:34.667Z,10.70
2023-03-02T15:00:04.236Z,8.40
2023-03-02T15:02:33.992Z,7.80
2023-03-02T15:05:01.297Z,9.30
2023-03-02T15:07:29.240Z,9.60
2023-03-02T15:09:58.682Z,9.80
2023-03-02T15:12:28.241Z,10.90
2023-03-02T15:14:56.613Z,10.80
2023-03-02T15:17:25.399Z,10.10
2023-03-02T15:19:53.478Z,12.50
2023-03-02T15:22:22.063Z,26.20
2023-03-02T15:24:51.688Z,28.50
2023-03-02T15:27:20.982Z,28.40
2023-03-02T15:29:48.556Z,23.00
2023-03-02T15:32:16.687Z,25.30
2023-03-02T15:34:44.395Z,10.40
2023-03-02T15:37:12.845Z,11.40
2023-03-02T15:39:40.589Z,31.60
2023-03-02T15:42:07.738Z,20.80
2023-03-02T15:44:34.947Z,29.20
2023-03-02T15:47:02.082Z,43.30
2023-03-02T15:49:29.685Z,36.80
2023-03-02T15:51:58.729Z,49.40
2023-03-02T15:54:27.746Z,81.60
2023-03-02T15:56:54.942Z,36.50
2023-03-02T15:59:24.408Z,137.00
2023-03-02T16:01:51.585Z,101.60
2023-03-02T16:04:18.809Z,234.40
2023-03-02T16:06:58.367Z,130.00
2023-03-02T16:09:52.793Z,65.70
2023-03-02T16:12:23.821Z,88.70
2023-03-02T16:17:21.145Z,67.00
2023-03-02T16:19:48.221Z,84.20
2023-03-02T16:22:15.661Z,97.50
2023-03-02T16:24:43.223Z,66.50
2023-03-02T16:27:10.309Z,61.00
2023-03-02T16:29:38.021Z,60.00
2023-03-02T16:32:06.693Z,53.70
2023-03-02T16:34:33.822Z,50.10
2023-03-02T16:37:00.872Z,48.70
2023-03-02T16:39:28.035Z,54.00
2023-03-02T16:41:54.982Z,48.60
2023-03-02T16:44:23.432Z,60.80
2023-03-02T16:46:50.397Z,52.90
2023-03-02T16:49:17.854Z,66.40
2023-03-02T16:51:44.905Z,61.60
2023-03-02T16:54:16.465Z,44.70
2023-03-02T16:56:45.544Z,38.80
2023-03-02T16:59:12.627Z,32.90
2023-03-02T17:01:39.685Z,26.90
2023-03-02T17:04:07.273Z,29.40
2023-03-02T17:06:34.380Z,32.60
2023-03-02T17:09:01.606Z,30.80
2023-03-02T17:11:28.781Z,28.00
2023-03-02T17:13:56.142Z,31.60
2023-03-02T17:16:23.582Z,31.70
2023-03-02T17:18:50.724Z,31.20
2023-03-02T17:21:18.946Z,30.30
2023-03-02T17:23:59.823Z,31.00
2023-03-02T17:26:26.937Z,30.80
2023-03-02T17:28:54.022Z,30.50
2023-03-02T17:31:30.096Z,30.10
2023-03-02T17:33:57.443Z,30.00
2023-03-02T17:36:24.357Z,30.90
2023-03-02T17:38:52.427Z,30.80
2023-03-02T17:41:19.294Z,33.00
2023-03-02T17:43:46.506Z,34.00
2023-03-02T17:46:15.611Z,32.80
2023-03-02T17:48:43.664Z,35.50
2023-03-02T17:51:12.048Z,35.90
2023-03-02T17:53:39.143Z,34.90
2023-03-02T17:56:06.874Z,37.40
2023-03-02T17:58:44.385Z,38.20
2023-03-02T18:01:13.648Z,37.70
2023-03-02T18:03:41.101Z,39.10
2023-03-02T18:06:08.183Z,41.50
2023-03-02T18:08:35.145Z,41.30
2023-03-02T18:11:02.621Z,72.60
2023-03-02T18:13:29.501Z,51.80
2023-03-02T18:15:56.469Z,46.00
2023-03-02T18:18:24.320Z,49.80
2023-03-02T18:20:51.305Z,46.00
2023-03-02T18:23:19.804Z,48.90
2023-03-02T18:25:46.824Z,47.10
2023-03-02T18:28:14.192Z,47.30
2023-03-02T18:30:41.790Z,43.70
2023-03-02T18:33:09.161Z,49.00
2023-03-02T18:35:45.153Z,45.50
2023-03-02T18:38:12.188Z,41.40
2023-03-02T18:40:39.861Z,42.70
2023-03-02T18:43:06.944Z,40.20
2023-03-02T18:45:34.740Z,41.30
2023-03-02T18:48:02.479Z,41.00
2023-03-02T18:50:30.923Z,41.30
2023-03-02T18:52:58.044Z,43.70
2023-03-02T18:55:25.731Z,40.40
2023-03-02T18:57:55.665Z,37.70
2023-03-02T19:00:27.966Z,35.80
2023-03-02T19:02:56.681Z,34.60
2023-03-02T19:05:27.345Z,32.30
2023-03-02T19:07:55.089Z,32.50
2023-03-02T19:10:22.504Z,34.30
2023-03-02T19:12:49.921Z,32.40
2023-03-02T19:15:17.306Z,33.80
2023-03-02T19:17:44.935Z,41.00
2023-03-02T19:20:15.669Z,35.50
2023-03-02T19:22:43.117Z,39.00
2023-03-02T19:25:11.296Z,37.10
2023-03-02T19:27:38.533Z,42.00
2023-03-02T19:30:07.312Z,44.60
2023-03-02T19:32:34.995Z,46.00
2023-03-02T19:35:02.996Z,48.00
2023-03-02T19:37:30.308Z,43.60
2023-03-02T19:39:57.368Z,45.30
2023-03-02T19:42:24.317Z,46.70
2023-03-02T19:44:51.386Z,46.90
2023-03-02T19:47:18.382Z,45.20
2023-03-02T19:49:45.475Z,48.40
2023-03-02T19:52:12.599Z,44.50
2023-03-02T19:54:39.620Z,48.80
2023-03-02T19:57:08.304Z,54.10
2023-03-02T19:59:37.097Z,50.10
2023-03-02T20:02:04.193Z,46.70
2023-03-02T20:04:31.076Z,47.50
2023-03-02T20:06:58.425Z,46.70
2023-03-02T20:09:25.675Z,48.20
2023-03-02T20:11:52.925Z,46.50
2023-03-02T20:14:32.889Z,47.20
2023-03-02T20:17:02.205Z,46.50
2023-03-02T20:19:29.348Z,43.90
2023-03-02T20:21:56.420Z,43.70
2023-03-02T20:24:23.621Z,49.50
2023-03-02T20:26:50.864Z,48.50
2023-03-02T20:29:18.995Z,52.40
2023-03-02T20:31:45.960Z,60.50
2023-03-02T20:34:16.197Z,65.40
2023-03-02T20:36:44.102Z,75.60
2023-03-02T20:39:16.354Z,59.70
2023-03-02T20:41:44.514Z,63.80
2023-03-02T20:44:14.568Z,98.20
2023-03-02T20:46:46.420Z,81.30
2023-03-02T20:49:16.110Z,69.70
2023-03-02T20:51:49.474Z,61.10
2023-03-02T20:54:17.568Z,65.30
2023-03-02T20:56:45.142Z,75.90
2023-03-02T20:59:14.206Z,78.70
2023-03-02T21:01:42.608Z,83.20
2023-03-02T21:04:10.636Z,84.00
2023-03-02T21:06:38.110Z,76.60
2023-03-02T21:09:08.258Z,78.40
2023-03-02T21:11:35.968Z,79.80
2023-03-02T21:14:03.463Z,74.30
2023-03-02T21:16:36.258Z,69.90
2023-03-02T21:19:10.017Z,63.50
2023-03-02T21:21:42.046Z,71.10
2023-03-02T21:24:17.078Z,63.80
2023-03-02T21:26:49.212Z,49.90
2023-03-02T21:29:18.050Z,56.70
2023-03-02T21:31:45.461Z,64.50
2023-03-02T21:34:13.642Z,65.40
2023-03-02T21:36:40.984Z,58.70
2023-03-02T21:39:09.620Z,68.00
2023-03-02T21:41:36.995Z,68.40
2023-03-02T21:44:06.057Z,62.80
2023-03-02T21:46:36.110Z,65.70
2023-03-02T21:49:08.155Z,64.70
2023-03-02T21:51:44.048Z,65.60
2023-03-02T21:54:10.959Z,60.30
2023-03-02T21:56:38.079Z,63.10
2023-03-02T21:59:05.636Z,65.60
2023-03-02T22:01:35.889Z,62.60
2023-03-02T22:04:03.005Z,65.20
2023-03-02T22:06:32.814Z,67.50
2023-03-02T22:08:59.856Z,66.40
2023-03-02T22:11:33.621Z,52.20
2023-03-02T22:14:17.750Z,53.10
2023-03-02T22:16:48.203Z,51.00
2023-03-02T22:19:25.874Z,51.90
2023-03-02T22:21:55.377Z,50.20
2023-03-02T22:24:26.816Z,48.20
2023-03-02T22:27:02.352Z,54.50
2023-03-02T22:29:42.662Z,55.20
2023-03-02T22:32:37.064Z,56.00
2023-03-02T22:35:26.060Z,54.90
2023-03-02T22:38:02.425Z,58.10
2023-03-02T22:40:32.281Z,62.40
2023-03-02T22:43:27.398Z,59.70
2023-03-02T22:45:59.788Z,71.10
2023-03-02T22:48:29.560Z,78.20
2023-03-02T22:50:56.678Z,76.20
2023-03-02T22:53:32.763Z,78.40
2023-03-02T22:56:02.205Z,74.20
2023-03-02T22:58:44.752Z,72.60
2023-03-02T23:01:23.630Z,80.20
2023-03-02T23:03:53.952Z,76.30
2023-03-02T23:06:27.916Z,67.60
2023-03-02T23:08:58.759Z,64.00
2023-03-02T23:11:27.064Z,62.40
2023-03-02T23:13:55.564Z,66.60
2023-03-02T23:16:27.902Z,65.70
2023-03-02T23:18:59.717Z,65.60
2023-03-02T23:21:47.902Z,58.20
2023-03-02T23:24:15.470Z,59.60
2023-03-02T23:26:43.424Z,62.50
2023-03-02T23:29:10.287Z,63.30
2023-03-02T23:31:38.475Z,59.50
2023-03-02T23:34:06.272Z,54.60
2023-03-02T23:36:33.240Z,54.60
2023-03-02T23:39:00.507Z,53.80
2023-03-02T23:41:27.655Z,59.00
2023-03-02T23:43:55.075Z,60.80
2023-03-02T23:46:22.072Z,58.10
2023-03-02T23:48:49.470Z,60.70
2023-03-02T23:51:16.588Z,57.50
2023-03-02T23:53:44.982Z,58.20
2023-03-02T23:56:11.955Z,58.00
2023-03-02T23:58:39.384Z,57.20
